createdAt,value
2022-10-05T00:01:45.615Z,78.18
2022-10-05T00:04:15.690Z,78.25
2022-10-05T00:06:44.896Z,78.25
2022-10-05T00:09:21.047Z,77.96
2022-10-05T00:11:49.234Z,78.02
2022-10-05T00:14:28.598Z,77.95
2022-10-05T00:16:56.237Z,78.33
2022-10-05T00:19:31.241Z,78.04
2022-10-05T00:22:09.562Z,78.04
2022-10-05T00:24:36.663Z,78.24
2022-10-05T00:27:14.957Z,78.15
2022-10-05T00:29:41.704Z,78.36
2022-10-05T00:32:10.308Z,78.08
2022-10-05T00:34:37.613Z,78.28
2022-10-05T00:37:05.928Z,78.00
2022-10-05T00:39:34.699Z,78.34
2022-10-05T00:42:39.067Z,78.22
2022-10-05T00:45:24.998Z,78.42
2022-10-05T00:48:22.844Z,78.40
2022-10-05T00:51:13.433Z,78.42
2022-10-05T00:54:04.429Z,78.46
2022-10-05T00:57:30.038Z,78.28
2022-10-05T01:00:08.110Z,78.61
2022-10-05T01:02:50.704Z,78.30
2022-10-05T01:05:36.404Z,78.58
2022-10-05T01:08:34.332Z,78.54
2022-10-05T01:11:12.292Z,78.26
2022-10-05T01:14:02.314Z,78.39
2022-10-05T01:16:49.966Z,78.58
2022-10-05T01:19:37.383Z,78.67
2022-10-05T01:22:14.288Z,78.72
2022-10-05T01:25:14.520Z,78.50
2022-10-05T01:27:53.554Z,78.65
2022-10-05T01:30:21.502Z,78.39
2022-10-05T01:33:12.597Z,78.38
2022-10-05T01:36:00.500Z,78.42
2022-10-05T01:38:37.300Z,78.61
2022-10-05T01:41:15.078Z,78.60
2022-10-05T01:44:09.039Z,78.80
2022-10-05T01:46:43.862Z,78.65
2022-10-05T01:49:21.989Z,78.66
2022-10-05T01:52:01.961Z,78.62
2022-10-05T01:54:56.856Z,78.82
2022-10-05T01:57:28.271Z,78.96
2022-10-05T02:00:07.762Z,78.88
2022-10-05T02:03:04.832Z,78.73
2022-10-05T02:05:49.931Z,78.76
2022-10-05T02:08:20.240Z,78.89
2022-10-05T02:10:53.894Z,79.11
2022-10-05T02:13:40.849Z,79.05
2022-10-05T02:16:39.332Z,79.30
2022-10-05T02:19:14.799Z,79.35
2022-10-05T02:21:45.779Z,79.44
2022-10-05T02:24:21.724Z,79.14
2022-10-05T02:26:50.419Z,79.41
2022-10-05T02:29:18.710Z,79.50
2022-10-05T02:31:50.107Z,79.16
2022-10-05T02:34:27.606Z,79.17
2022-10-05T02:37:21.538Z,79.52
2022-10-05T02:39:55.390Z,79.62
2022-10-05T02:42:40.107Z,79.66
2022-10-05T02:45:39.452Z,79.68
2022-10-05T02:48:13.166Z,79.53
2022-10-05T02:51:09.438Z,79.59
2022-10-05T02:54:01.212Z,79.47
2022-10-05T02:56:51.344Z,79.35
2022-10-05T02:59:40.214Z,79.32
2022-10-05T03:02:16.169Z,79.58
2022-10-05T03:04:46.866Z,79.29
2022-10-05T03:07:36.748Z,79.51
2022-10-05T03:10:15.578Z,79.10
2022-10-05T03:12:55.830Z,79.39
2022-10-05T03:15:51.727Z,79.18
2022-10-05T03:18:30.766Z,79.53
2022-10-05T03:21:14.562Z,79.31
2022-10-05T03:24:08.191Z,79.24
2022-10-05T03:26:39.655Z,79.02
2022-10-05T03:29:40.156Z,79.13
2022-10-05T03:32:44.108Z,79.02
2022-10-05T03:35:48.971Z,78.98
2022-10-05T03:38:43.136Z,79.11
2022-10-05T03:41:30.120Z,79.40
2022-10-05T03:44:09.610Z,79.30
2022-10-05T03:47:01.585Z,79.19
2022-10-05T03:49:39.216Z,79.06
2022-10-05T03:52:26.524Z,79.32
2022-10-05T03:55:01.498Z,79.30
2022-10-05T03:57:33.586Z,79.56
2022-10-05T04:00:18.398Z,79.46
2022-10-05T04:03:21.367Z,79.26
2022-10-05T04:05:58.232Z,79.07
2022-10-05T04:08:55.048Z,79.04
2022-10-05T04:11:28.021Z,79.03
2022-10-05T04:14:01.354Z,79.02
2022-10-05T04:16:32.324Z,79.03
2022-10-05T04:19:04.561Z,79.30
2022-10-05T04:21:57.997Z,79.23
2022-10-05T04:24:47.338Z,78.94
2022-10-05T04:27:18.424Z,79.34
2022-10-05T04:29:56.116Z,79.27
2022-10-05T04:32:31.425Z,79.54
2022-10-05T04:35:13.255Z,79.46
2022-10-05T04:37:52.892Z,79.20
2022-10-05T04:40:57.618Z,79.49
2022-10-05T04:43:39.790Z,79.20
2022-10-05T04:46:31.141Z,79.08
2022-10-05T04:49:14.654Z,79.36
2022-10-05T04:52:01.455Z,79.07
2022-10-05T04:54:37.226Z,79.14
2022-10-05T04:57:21.380Z,79.30
2022-10-05T05:00:05.825Z,79.36
2022-10-05T05:03:04.767Z,79.44
2022-10-05T05:06:16.271Z,79.38
2022-10-05T05:09:06.726Z,79.52
2022-10-05T05:12:10.844Z,79.69
2022-10-05T05:14:55.692Z,79.32
2022-10-05T05:17:47.386Z,79.47
2022-10-05T05:20:27.075Z,79.71
2022-10-05T05:23:19.550Z,79.86
2022-10-05T05:25:57.754Z,79.75
2022-10-05T05:28:48.635Z,80.01
2022-10-05T05:31:27.901Z,79.79
2022-10-05T05:34:19.968Z,80.02
2022-10-05T05:37:05.772Z,80.02
2022-10-05T05:39:39.132Z,80.01
2022-10-05T05:42:33.518Z,79.74
2022-10-05T05:45:07.199Z,79.99
2022-10-05T05:47:37.842Z,80.02
2022-10-05T05:50:24.683Z,79.91
2022-10-05T05:53:03.761Z,79.80
2022-10-05T05:55:42.011Z,79.88
2022-10-05T05:58:23.245Z,79.58
2022-10-05T06:00:52.228Z,79.71
2022-10-05T06:03:42.935Z,79.76
2022-10-05T06:06:14.378Z,79.91
2022-10-05T06:08:50.269Z,79.60
2022-10-05T06:11:41.780Z,79.44
2022-10-05T06:14:16.091Z,79.54
2022-10-05T06:16:46.530Z,79.48
2022-10-05T06:19:16.941Z,79.81
2022-10-05T06:21:53.467Z,79.70
2022-10-05T06:24:27.411Z,79.67
2022-10-05T06:27:19.060Z,79.76
2022-10-05T06:30:01.987Z,79.47
2022-10-05T06:32:48.157Z,79.41
2022-10-05T06:35:27.801Z,79.65
2022-10-05T06:38:09.922Z,79.25
2022-10-05T06:40:57.801Z,79.46
2022-10-05T06:43:40.040Z,79.30
2022-10-05T06:46:17.816Z,79.42
2022-10-05T06:49:20.773Z,79.00
2022-10-05T06:52:26.859Z,79.17
2022-10-05T06:55:13.936Z,78.98
2022-10-05T06:57:56.176Z,79.02
2022-10-05T07:00:25.523Z,78.79
2022-10-05T07:03:05.877Z,79.06
2022-10-05T07:05:44.624Z,78.77
2022-10-05T07:08:36.375Z,78.56
2022-10-05T07:11:20.893Z,78.41
2022-10-05T07:14:29.441Z,78.42
2022-10-05T07:17:15.343Z,78.10
2022-10-05T07:20:01.109Z,77.77
2022-10-05T07:22:50.541Z,77.68
2022-10-05T07:25:29.436Z,77.14
2022-10-05T07:28:17.703Z,76.79
2022-10-05T07:30:58.486Z,76.74
2022-10-05T07:33:35.324Z,76.19
2022-10-05T07:36:37.393Z,76.20
2022-10-05T07:39:17.815Z,76.04
2022-10-05T07:42:19.190Z,75.91
2022-10-05T07:44:53.060Z,75.47
2022-10-05T07:47:36.153Z,75.52
2022-10-05T07:50:19.670Z,75.42
2022-10-05T07:52:54.833Z,75.23
2022-10-05T07:55:47.307Z,74.88
2022-10-05T07:58:31.524Z,75.16
2022-10-05T08:01:11.217Z,74.72
2022-10-05T08:03:55.420Z,74.68
2022-10-05T08:06:39.125Z,74.56
2022-10-05T08:09:20.232Z,74.19
2022-10-05T08:12:02.266Z,74.34
2022-10-05T08:14:35.846Z,73.87
2022-10-05T08:17:06.135Z,73.73
2022-10-05T08:19:40.382Z,73.68
2022-10-05T08:22:10.096Z,73.30
2022-10-05T08:25:02.159Z,73.26
2022-10-05T08:27:42.354Z,73.04
2022-10-05T08:30:11.953Z,73.07
2022-10-05T08:32:47.700Z,72.88
2022-10-05T08:35:25.548Z,73.10
2022-10-05T08:37:52.636Z,72.87
2022-10-05T08:40:19.307Z,72.72
2022-10-05T08:43:14.788Z,72.64
2022-10-05T08:46:07.831Z,72.66
2022-10-05T08:48:56.615Z,72.30
2022-10-05T08:51:31.789Z,72.42
2022-10-05T08:54:17.488Z,71.90
2022-10-05T08:57:08.669Z,71.95
2022-10-05T08:59:54.165Z,71.77
2022-10-05T09:02:39.197Z,71.40
2022-10-05T09:05:42.606Z,71.54
2022-10-05T09:08:36.016Z,70.92
2022-10-05T09:11:07.301Z,70.85
2022-10-05T09:14:01.487Z,71.00
2022-10-05T09:16:47.180Z,70.34
2022-10-05T09:19:52.623Z,70.52
2022-10-05T09:22:40.920Z,70.42
2022-10-05T09:25:33.111Z,70.45
2022-10-05T09:28:18.321Z,70.54
2022-10-05T09:30:51.694Z,70.21
2022-10-05T09:33:43.494Z,70.03
2022-10-05T09:36:25.433Z,69.77
2022-10-05T09:39:23.932Z,70.01
2022-10-05T09:42:09.011Z,69.51
2022-10-05T09:44:58.202Z,69.96
2022-10-05T09:47:50.722Z,69.71
2022-10-05T09:50:40.982Z,69.68
2022-10-05T09:53:46.252Z,69.21
2022-10-05T09:56:34.942Z,69.38
2022-10-05T09:59:17.551Z,69.28
2022-10-05T10:02:15.383Z,69.10
2022-10-05T10:05:05.767Z,69.17
2022-10-05T10:07:55.932Z,69.11
2022-10-05T10:10:38.960Z,69.14
2022-10-05T10:13:40.767Z,69.61
2022-10-05T10:16:45.939Z,69.67
2022-10-05T10:19:41.318Z,69.50
2022-10-05T10:22:20.214Z,69.09
2022-10-05T10:25:31.833Z,69.27
2022-10-05T10:28:10.690Z,68.76
2022-10-05T10:31:04.136Z,68.41
2022-10-05T10:33:52.214Z,68.32
2022-10-05T10:36:32.785Z,68.52
2022-10-05T10:39:12.162Z,68.31
2022-10-05T10:41:45.661Z,67.83
2022-10-05T10:44:24.211Z,67.81
2022-10-05T10:46:57.458Z,67.88
2022-10-05T10:49:53.552Z,67.95
2022-10-05T10:52:33.080Z,67.61
2022-10-05T10:55:19.096Z,67.30
2022-10-05T10:58:18.178Z,67.17
2022-10-05T11:01:06.250Z,66.93
2022-10-05T11:03:44.069Z,66.47
2022-10-05T11:06:33.025Z,66.22
2022-10-05T11:09:25.724Z,65.69
2022-10-05T11:12:45.392Z,65.43
2022-10-05T11:15:20.686Z,65.07
2022-10-05T11:18:10.633Z,64.23
2022-10-05T11:20:56.347Z,63.85
2022-10-05T11:23:51.189Z,63.63
2022-10-05T11:26:43.126Z,63.23
2022-10-05T11:29:40.554Z,62.79
2022-10-05T11:32:31.113Z,62.94
2022-10-05T11:35:24.828Z,63.05
2022-10-05T11:38:07.191Z,62.87
2022-10-05T11:40:59.260Z,62.95
2022-10-05T11:43:32.511Z,62.81
2022-10-05T11:46:17.280Z,62.97
2022-10-05T11:49:14.628Z,63.14
2022-10-05T11:51:55.446Z,63.03
2022-10-05T11:54:46.606Z,62.33
2022-10-05T11:57:41.255Z,61.72
2022-10-05T12:00:18.671Z,61.85
2022-10-05T12:03:16.451Z,61.94
2022-10-05T12:06:02.891Z,61.87
2022-10-05T12:09:08.162Z,62.17
2022-10-05T12:12:01.147Z,62.42
2022-10-05T12:14:33.670Z,62.59
2022-10-05T12:17:31.267Z,62.15
2022-10-05T12:20:01.696Z,61.66
2022-10-05T12:22:34.958Z,61.80
2022-10-05T12:25:31.903Z,61.98
2022-10-05T12:28:05.392Z,61.88
2022-10-05T12:30:54.824Z,61.58
2022-10-05T12:33:49.595Z,61.33
2022-10-05T12:37:03.522Z,61.00
2022-10-05T12:39:37.217Z,60.46
2022-10-05T12:42:28.218Z,60.23
2022-10-05T12:45:22.271Z,59.51
2022-10-05T12:48:15.960Z,59.68
2022-10-05T12:50:48.543Z,59.57
2022-10-05T12:53:20.425Z,59.46
2022-10-05T12:56:10.385Z,59.48
2022-10-05T12:58:50.573Z,59.32
2022-10-05T13:01:36.256Z,59.07
2022-10-05T13:04:40.580Z,59.25
2022-10-05T13:07:29.176Z,58.71
2022-10-05T13:10:01.525Z,58.47
2022-10-05T13:12:51.653Z,58.12
2022-10-05T13:15:29.615Z,57.75
2022-10-05T13:17:56.296Z,57.78
2022-10-05T13:20:31.373Z,57.70
2022-10-05T13:23:09.699Z,57.57
2022-10-05T13:25:39.858Z,57.76
2022-10-05T13:28:32.123Z,57.17
2022-10-05T13:31:27.007Z,57.02
2022-10-05T13:34:06.978Z,56.80
2022-10-05T13:36:39.755Z,56.44
2022-10-05T13:39:28.379Z,55.68
2022-10-05T13:42:15.773Z,55.37
2022-10-05T13:44:45.011Z,55.39
2022-10-05T13:47:17.316Z,54.39
2022-10-05T13:50:04.101Z,54.07
2022-10-05T13:52:42.422Z,54.43
2022-10-05T13:55:26.878Z,54.41
2022-10-05T13:58:08.812Z,54.12
2022-10-05T14:00:46.857Z,53.71
2022-10-05T14:03:34.466Z,53.78
2022-10-05T14:06:05.438Z,53.58
2022-10-05T14:08:34.366Z,53.81
2022-10-05T14:11:21.408Z,53.99
2022-10-05T14:13:49.223Z,53.59
2022-10-05T14:16:22.461Z,53.77
2022-10-05T14:18:59.075Z,53.52
2022-10-05T14:21:29.640Z,53.51
2022-10-05T14:23:58.873Z,53.59
2022-10-05T14:26:25.548Z,53.29
2022-10-05T14:29:13.922Z,53.29
2022-10-05T14:31:50.123Z,52.95
2022-10-05T14:34:26.888Z,52.96
2022-10-05T14:37:18.110Z,52.70
2022-10-05T14:39:49.952Z,52.89
2022-10-05T14:42:19.918Z,52.40
2022-10-05T14:44:59.512Z,52.09
2022-10-05T14:47:29.829Z,52.09
2022-10-05T14:50:16.951Z,52.10
2022-10-05T14:52:51.645Z,52.12
2022-10-05T14:55:44.890Z,51.57
2022-10-05T14:58:39.481Z,51.66
2022-10-05T15:01:28.795Z,51.83
2022-10-05T15:04:23.685Z,51.70
2022-10-05T15:07:20.323Z,51.36
2022-10-05T15:09:56.080Z,51.71
2022-10-05T15:12:55.209Z,51.73
2022-10-05T15:15:37.203Z,51.72
2022-10-05T15:18:15.123Z,52.21
2022-10-05T15:21:11.185Z,51.63
2022-10-05T15:23:41.663Z,50.73
2022-10-05T15:26:11.477Z,48.24
2022-10-05T15:28:54.451Z,46.68
2022-10-05T15:31:40.074Z,45.54
2022-10-05T15:34:20.933Z,44.86
2022-10-05T15:37:22.684Z,43.98
2022-10-05T15:40:00.209Z,44.33
2022-10-05T15:42:38.562Z,44.49
2022-10-05T15:45:26.099Z,45.76
2022-10-05T15:48:20.213Z,47.28
2022-10-05T15:51:10.839Z,49.14
2022-10-05T15:53:39.858Z,50.73
2022-10-05T15:56:20.839Z,52.22
2022-10-05T15:58:55.899Z,52.78
2022-10-05T16:01:31.670Z,53.80
2022-10-05T16:04:08.111Z,54.00
2022-10-05T16:07:05.774Z,54.72
2022-10-05T16:10:09.743Z,55.20
2022-10-05T16:13:26.382Z,56.01
2022-10-05T16:16:16.904Z,56.62
2022-10-05T16:18:47.741Z,56.90
2022-10-05T16:21:52.947Z,57.62
2022-10-05T16:24:22.634Z,58.05
2022-10-05T16:26:59.908Z,58.16
2022-10-05T16:29:54.526Z,58.79
2022-10-05T16:32:30.348Z,59.47
2022-10-05T16:35:19.542Z,59.82
2022-10-05T16:37:46.225Z,60.27
2022-10-05T16:40:51.071Z,60.82
2022-10-05T16:43:27.396Z,61.19
2022-10-05T16:46:27.506Z,61.08
2022-10-05T16:49:19.919Z,61.49
2022-10-05T16:52:04.265Z,61.74
2022-10-05T16:55:05.134Z,62.17
2022-10-05T16:57:39.950Z,62.53
2022-10-05T17:00:19.839Z,62.54
2022-10-05T17:03:22.043Z,62.61
2022-10-05T17:06:07.404Z,62.79
2022-10-05T17:09:08.986Z,62.83
2022-10-05T17:11:41.810Z,63.16
2022-10-05T17:14:21.073Z,63.10
2022-10-05T17:17:26.364Z,63.54
2022-10-05T17:19:56.255Z,63.70
2022-10-05T17:22:37.668Z,63.70
2022-10-05T17:25:13.187Z,63.84
2022-10-05T17:27:58.147Z,63.92
2022-10-05T17:30:40.161Z,64.11
2022-10-05T17:33:14.274Z,64.11
2022-10-05T17:35:54.615Z,64.57
2022-10-05T17:38:23.425Z,64.65
2022-10-05T17:41:12.238Z,64.44
2022-10-05T17:43:39.221Z,64.76
2022-10-05T17:46:10.399Z,65.11
2022-10-05T17:48:49.352Z,64.89
2022-10-05T17:51:35.742Z,64.93
2022-10-05T17:54:40.740Z,65.29
2022-10-05T17:57:07.445Z,65.16
2022-10-05T17:59:46.207Z,65.24
2022-10-05T18:02:40.728Z,65.39
2022-10-05T18:05:14.640Z,65.36
2022-10-05T18:07:43.014Z,65.80
2022-10-05T18:10:09.930Z,65.99
2022-10-05T18:12:36.712Z,65.94
2022-10-05T18:15:06.506Z,66.17
2022-10-05T18:18:24.413Z,66.17
2022-10-05T18:21:23.611Z,66.44
2022-10-05T18:23:59.489Z,66.85
2022-10-05T18:26:44.396Z,67.08
2022-10-05T18:29:43.599Z,67.57
2022-10-05T18:32:40.819Z,67.88
2022-10-05T18:35:13.675Z,67.84
2022-10-05T18:37:42.966Z,68.15
2022-10-05T18:40:30.557Z,68.15
2022-10-05T18:43:23.646Z,68.11
2022-10-05T18:46:22.128Z,68.61
2022-10-05T18:49:16.473Z,68.46
2022-10-05T18:52:23.534Z,68.94
2022-10-05T18:55:19.374Z,69.02
2022-10-05T18:58:10.019Z,68.98
2022-10-05T19:00:45.683Z,69.43
2022-10-05T19:03:19.127Z,69.60
2022-10-05T19:06:13.479Z,69.77
2022-10-05T19:08:55.336Z,69.80
2022-10-05T19:11:28.915Z,69.98
2022-10-05T19:14:20.837Z,70.20
2022-10-05T19:17:02.813Z,70.08
2022-10-05T19:19:48.959Z,70.10
2022-10-05T19:22:23.710Z,70.33
2022-10-05T19:25:21.842Z,70.69
2022-10-05T19:28:01.495Z,70.66
2022-10-05T19:30:50.109Z,70.60
2022-10-05T19:33:35.923Z,70.78
2022-10-05T19:36:12.253Z,71.12
2022-10-05T19:39:18.201Z,70.71
2022-10-05T19:42:02.313Z,71.20
2022-10-05T19:44:57.587Z,71.25
2022-10-05T19:48:12.650Z,71.40
2022-10-05T19:50:40.012Z,71.41
2022-10-05T19:53:24.377Z,71.43
2022-10-05T19:55:51.705Z,71.49
2022-10-05T19:58:27.386Z,71.32
2022-10-05T20:01:02.401Z,71.64
2022-10-05T20:03:31.360Z,71.77
2022-10-05T20:06:00.211Z,71.87
2022-10-05T20:08:32.132Z,71.89
2022-10-05T20:11:11.327Z,71.99
2022-10-05T20:13:41.835Z,71.96
2022-10-05T20:16:32.201Z,71.90
2022-10-05T20:19:17.751Z,71.79
2022-10-05T20:21:56.791Z,71.97
2022-10-05T20:24:25.858Z,72.32
2022-10-05T20:27:02.734Z,72.50
2022-10-05T20:29:35.642Z,72.87
2022-10-05T20:32:12.345Z,72.95
2022-10-05T20:34:43.773Z,73.04
2022-10-05T20:37:12.291Z,73.12
2022-10-05T20:39:39.869Z,73.23
2022-10-05T20:42:07.842Z,73.46
2022-10-05T20:44:36.367Z,73.29
2022-10-05T20:47:03.779Z,73.06
2022-10-05T20:49:31.882Z,73.15
2022-10-05T20:51:59.249Z,73.48
2022-10-05T20:54:26.790Z,73.32
2022-10-05T20:56:55.776Z,73.43
2022-10-05T20:59:23.809Z,73.03
2022-10-05T21:01:50.761Z,73.03
2022-10-05T21:04:19.471Z,72.73
2022-10-05T21:06:46.702Z,72.84
2022-10-05T21:09:15.120Z,72.76
2022-10-05T21:11:42.545Z,72.55
2022-10-05T21:14:10.520Z,72.49
2022-10-05T21:16:38.395Z,72.76
2022-10-05T21:19:07.157Z,72.76
2022-10-05T21:21:34.059Z,72.71
2022-10-05T21:24:00.798Z,72.77
2022-10-05T21:26:29.133Z,72.79
2022-10-05T21:28:56.680Z,72.55
2022-10-05T21:31:23.477Z,72.90
2022-10-05T21:33:50.204Z,72.69
2022-10-05T21:36:21.131Z,72.99
2022-10-05T21:38:51.840Z,72.63
2022-10-05T21:41:18.767Z,72.84
2022-10-05T21:43:45.894Z,73.02
2022-10-05T21:46:20.352Z,72.70
2022-10-05T21:48:48.397Z,72.66
2022-10-05T21:51:17.298Z,72.66
2022-10-05T21:53:49.097Z,72.40
2022-10-05T21:56:18.334Z,72.75
2022-10-05T21:58:45.891Z,72.92
2022-10-05T22:01:12.756Z,72.70
2022-10-05T22:03:39.617Z,72.98
2022-10-05T22:06:07.171Z,72.84
2022-10-05T22:08:34.682Z,72.98
2022-10-05T22:11:10.262Z,73.12
2022-10-05T22:13:48.267Z,73.35
2022-10-05T22:16:16.326Z,73.27
2022-10-05T22:18:43.284Z,72.85
2022-10-05T22:21:12.254Z,72.99
2022-10-05T22:23:40.202Z,73.35
2022-10-05T22:26:08.773Z,73.36
2022-10-05T22:28:35.703Z,73.44
2022-10-05T22:31:04.374Z,73.62
2022-10-05T22:33:31.463Z,73.23
2022-10-05T22:35:59.372Z,73.76
2022-10-05T22:38:26.896Z,73.40
2022-10-05T22:40:53.801Z,73.59
2022-10-05T22:43:20.528Z,73.61
2022-10-05T22:45:47.427Z,73.18
2022-10-05T22:48:14.363Z,73.55
2022-10-05T22:50:44.301Z,73.16
2022-10-05T22:53:11.781Z,73.13
2022-10-05T22:55:39.000Z,73.05
2022-10-05T22:58:05.944Z,73.01
2022-10-05T23:00:56.444Z,72.85
2022-10-05T23:03:20.283Z,72.96
2022-10-05T23:05:46.995Z,72.59
2022-10-05T23:08:13.692Z,72.52
2022-10-05T23:10:40.453Z,72.45
2022-10-05T23:13:08.001Z,72.28
2022-10-05T23:15:34.701Z,72.12
2022-10-05T23:18:01.488Z,72.54
2022-10-05T23:20:28.265Z,72.33
2022-10-05T23:22:55.118Z,72.24
2022-10-05T23:25:22.360Z,72.38
2022-10-05T23:27:49.352Z,72.37
2022-10-05T23:30:16.184Z,72.47
2022-10-05T23:32:44.547Z,72.68
2022-10-05T23:35:12.887Z,72.76
2022-10-05T23:37:43.081Z,73.19
2022-10-05T23:40:12.435Z,73.31
2022-10-05T23:42:40.148Z,73.44
2022-10-05T23:45:10.927Z,73.28
2022-10-05T23:47:38.766Z,73.49
2022-10-05T23:50:07.154Z,73.76
2022-10-05T23:52:35.059Z,73.48
2022-10-05T23:55:05.598Z,73.89
2022-10-05T23:57:32.454Z,73.82
